sensor_id;sensor_type;location;lat;lon;timestamp;pressure;altitude;pressure_sealevel;temperature;humidity
47082;BME280;33066;49.296;14.470;2022-10-23T00:01:30;97327.04;;;14.25;41.45
47082;BME280;33066;49.296;14.470;2022-10-23T00:03:55;97329.42;;;14.33;41.32
47082;BME280;33066;49.296;14.470;2022-10-23T00:06:19;97333.19;;;14.58;41.33
47082;BME280;33066;49.296;14.470;2022-10-23T00:08:45;97336.70;;;14.36;40.75
47082;BME280;33066;49.296;14.470;2022-10-23T00:11:12;97333.91;;;14.62;40.68
47082;BME280;33066;49.296;14.470;2022-10-23T00:13:35;97329.94;;;14.39;40.49
47082;BME280;33066;49.296;14.470;2022-10-23T00:16:01;97327.76;;;14.49;40.60
47082;BME280;33066;49.296;14.470;2022-10-23T00:18:26;97328.24;;;14.43;40.95
47082;BME280;33066;49.296;14.470;2022-10-23T00:20:52;97329.46;;;14.20;40.81
47082;BME280;33066;49.296;14.470;2022-10-23T00:23:17;97328.49;;;14.17;41.05
47082;BME280;33066;49.296;14.470;2022-10-23T00:25:42;97329.29;;;14.22;41.08
47082;BME280;33066;49.296;14.470;2022-10-23T00:28:09;97332.08;;;14.53;40.99
47082;BME280;33066;49.296;14.470;2022-10-23T00:30:33;97328.99;;;14.27;41.06
47082;BME280;33066;49.296;14.470;2022-10-23T00:32:59;97327.15;;;14.29;41.18
47082;BME280;33066;49.296;14.470;2022-10-23T00:35:25;97326.75;;;14.60;41.20
47082;BME280;33066;49.296;14.470;2022-10-23T00:37:50;97326.79;;;14.37;41.13
47082;BME280;33066;49.296;14.470;2022-10-23T00:40:16;97328.81;;;14.33;41.02
47082;BME280;33066;49.296;14.470;2022-10-23T00:42:41;97329.73;;;14.48;40.97
47082;BME280;33066;49.296;14.470;2022-10-23T00:45:12;97324.62;;;13.46;40.77
47082;BME280;33066;49.296;14.470;2022-10-23T00:47:31;97324.92;;;14.80;40.33
47082;BME280;33066;49.296;14.470;2022-10-23T00:49:57;97326.96;;;14.61;40.56
47082;BME280;33066;49.296;14.470;2022-10-23T00:52:22;97328.83;;;14.66;40.61
47082;BME280;33066;49.296;14.470;2022-10-23T00:54:47;97331.18;;;14.56;40.59
47082;BME280;33066;49.296;14.470;2022-10-23T00:57:14;97330.74;;;14.51;40.65
47082;BME280;33066;49.296;14.470;2022-10-23T00:59:39;97331.23;;;14.44;40.81
47082;BME280;33066;49.296;14.470;2022-10-23T01:02:04;97332.18;;;14.47;40.80
47082;BME280;33066;49.296;14.470;2022-10-23T01:04:29;97328.31;;;14.22;40.87
47082;BME280;33066;49.296;14.470;2022-10-23T01:07:00;97330.09;;;14.52;40.72
47082;BME280;33066;49.296;14.470;2022-10-23T01:09:27;97327.98;;;14.51;40.54
47082;BME280;33066;49.296;14.470;2022-10-23T01:11:49;97321.77;;;14.69;40.46
47082;BME280;33066;49.296;14.470;2022-10-23T01:14:18;97326.60;;;14.36;40.48
47082;BME280;33066;49.296;14.470;2022-10-23T01:16:43;97328.62;;;14.07;40.60
47082;BME280;33066;49.296;14.470;2022-10-23T01:19:10;97326.99;;;14.05;40.83
47082;BME280;33066;49.296;14.470;2022-10-23T01:21:33;97324.49;;;14.27;40.73
47082;BME280;33066;49.296;14.470;2022-10-23T01:24:05;97326.09;;;14.25;40.66
47082;BME280;33066;49.296;14.470;2022-10-23T01:26:32;97326.65;;;14.22;40.71
47082;BME280;33066;49.296;14.470;2022-10-23T01:28:49;97330.75;;;14.02;40.71
47082;BME280;33066;49.296;14.470;2022-10-23T01:31:15;97339.50;;;14.39;40.69
47082;BME280;33066;49.296;14.470;2022-10-23T01:33:38;97332.55;;;14.12;40.80
47082;BME280;33066;49.296;14.470;2022-10-23T01:36:03;97325.78;;;14.33;40.79
47082;BME280;33066;49.296;14.470;2022-10-23T01:38:30;97316.82;;;14.09;40.67
47082;BME280;33066;49.296;14.470;2022-10-23T01:40:55;97318.17;;;14.01;40.51
47082;BME280;33066;49.296;14.470;2022-10-23T01:43:19;97323.37;;;14.14;40.76
47082;BME280;33066;49.296;14.470;2022-10-23T01:45:46;97328.06;;;14.03;40.73
47082;BME280;33066;49.296;14.470;2022-10-23T01:48:12;97326.88;;;13.75;41.10
47082;BME280;33066;49.296;14.470;2022-10-23T01:50:35;97324.30;;;13.80;41.02
47082;BME280;33066;49.296;14.470;2022-10-23T01:52:59;97322.09;;;14.04;40.76
47082;BME280;33066;49.296;14.470;2022-10-23T01:55:25;97325.97;;;13.74;40.90
47082;BME280;33066;49.296;14.470;2022-10-23T01:57:51;97322.87;;;13.74;40.98
47082;BME280;33066;49.296;14.470;2022-10-23T02:00:19;97316.11;;;13.98;40.99
47082;BME280;33066;49.296;14.470;2022-10-23T02:02:42;97314.77;;;13.78;41.03
47082;BME280;33066;49.296;14.470;2022-10-23T02:05:09;97311.80;;;13.81;40.82
47082;BME280;33066;49.296;14.470;2022-10-23T02:07:32;97311.29;;;14.09;40.69
47082;BME280;33066;49.296;14.470;2022-10-23T02:09:58;97314.89;;;13.79;40.65
47082;BME280;33066;49.296;14.470;2022-10-23T02:12:28;97317.02;;;13.78;40.59
47082;BME280;33066;49.296;14.470;2022-10-23T02:14:53;97316.34;;;13.79;40.81
47082;BME280;33066;49.296;14.470;2022-10-23T02:17:20;97316.24;;;14.04;40.83
47082;BME280;33066;49.296;14.470;2022-10-23T02:19:45;97312.60;;;13.89;40.85
47082;BME280;33066;49.296;14.470;2022-10-23T02:22:09;97307.21;;;13.74;40.75
47082;BME280;33066;49.296;14.470;2022-10-23T02:24:35;97302.43;;;14.19;40.57
47082;BME280;33066;49.296;14.470;2022-10-23T02:27:00;97297.30;;;13.89;40.51
47082;BME280;33066;49.296;14.470;2022-10-23T02:29:26;97297.95;;;13.92;40.52
47082;BME280;33066;49.296;14.470;2022-10-23T02:31:48;97297.27;;;14.09;40.76
47082;BME280;33066;49.296;14.470;2022-10-23T02:34:13;97295.02;;;13.90;40.91
47082;BME280;33066;49.296;14.470;2022-10-23T02:36:39;97294.95;;;13.98;40.86
47082;BME280;33066;49.296;14.470;2022-10-23T02:39:04;97296.61;;;13.98;40.64
47082;BME280;33066;49.296;14.470;2022-10-23T02:41:37;97302.37;;;13.65;40.82
47082;BME280;33066;49.296;14.470;2022-10-23T02:44:05;97299.42;;;13.92;41.07
47082;BME280;33066;49.296;14.470;2022-10-23T02:46:26;97297.06;;;13.75;41.08
47082;BME280;33066;49.296;14.470;2022-10-23T02:48:50;97293.84;;;14.00;41.01
47082;BME280;33066;49.296;14.470;2022-10-23T02:51:16;97294.54;;;14.04;41.00
47082;BME280;33066;49.296;14.470;2022-10-23T02:53:44;97298.45;;;14.24;41.03
47082;BME280;33066;49.296;14.470;2022-10-23T02:56:07;97300.27;;;13.92;41.11
47082;BME280;33066;49.296;14.470;2022-10-23T02:58:31;97299.98;;;13.65;41.34
47082;BME280;33066;49.296;14.470;2022-10-23T03:00:56;97301.74;;;13.90;41.37
47082;BME280;33066;49.296;14.470;2022-10-23T03:03:22;97302.65;;;13.88;41.45
47082;BME280;33066;49.296;14.470;2022-10-23T03:05:44;97301.02;;;13.92;41.21
47082;BME280;33066;49.296;14.470;2022-10-23T03:08:11;97301.10;;;14.17;41.00
47082;BME280;33066;49.296;14.470;2022-10-23T03:13:01;97303.20;;;14.20;40.32
47082;BME280;33066;49.296;14.470;2022-10-23T03:15:26;97307.67;;;14.07;40.43
47082;BME280;33066;49.296;14.470;2022-10-23T03:17:52;97306.02;;;14.15;40.56
47082;BME280;33066;49.296;14.470;2022-10-23T03:20:18;97298.04;;;14.00;40.53
47082;BME280;33066;49.296;14.470;2022-10-23T03:22:43;97299.77;;;13.90;40.70
47082;BME280;33066;49.296;14.470;2022-10-23T03:25:09;97304.54;;;13.61;40.82
47082;BME280;33066;49.296;14.470;2022-10-23T03:27:34;97304.08;;;13.57;41.18
47082;BME280;33066;49.296;14.470;2022-10-23T03:30:00;97301.71;;;13.87;41.35
47082;BME280;33066;49.296;14.470;2022-10-23T03:32:26;97304.91;;;13.86;41.40
47082;BME280;33066;49.296;14.470;2022-10-23T03:34:52;97304.32;;;13.90;41.32
47082;BME280;33066;49.296;14.470;2022-10-23T03:37:17;97305.05;;;13.76;41.37
47082;BME280;33066;49.296;14.470;2022-10-23T03:39:43;97301.39;;;14.02;41.52
47082;BME280;33066;49.296;14.470;2022-10-23T03:42:09;97303.06;;;14.05;41.48
47082;BME280;33066;49.296;14.470;2022-10-23T03:44:34;97299.89;;;13.86;41.54
47082;BME280;33066;49.296;14.470;2022-10-23T03:47:00;97292.47;;;14.11;41.47
47082;BME280;33066;49.296;14.470;2022-10-23T03:49:24;97285.24;;;13.68;41.46
47082;BME280;33066;49.296;14.470;2022-10-23T03:51:50;97288.03;;;14.18;41.38
47082;BME280;33066;49.296;14.470;2022-10-23T03:54:15;97291.46;;;13.90;41.21
47082;BME280;33066;49.296;14.470;2022-10-23T03:56:41;97294.54;;;13.93;41.22
47082;BME280;33066;49.296;14.470;2022-10-23T03:59:06;97290.53;;;13.86;41.31
47082;BME280;33066;49.296;14.470;2022-10-23T04:01:31;97294.02;;;13.80;41.59
47082;BME280;33066;49.296;14.470;2022-10-23T04:03:57;97296.36;;;13.77;41.56
47082;BME280;33066;49.296;14.470;2022-10-23T04:06:22;97292.34;;;13.76;42.11
47082;BME280;33066;49.296;14.470;2022-10-23T04:08:48;97288.25;;;13.89;41.96
47082;BME280;33066;49.296;14.470;2022-10-23T04:11:13;97278.53;;;13.87;41.64
47082;BME280;33066;49.296;14.470;2022-10-23T04:13:38;97273.80;;;13.93;41.82
47082;BME280;33066;49.296;14.470;2022-10-23T04:16:04;97268.92;;;13.89;41.61
47082;BME280;33066;49.296;14.470;2022-10-23T04:18:29;97269.90;;;14.20;41.73
47082;BME280;33066;49.296;14.470;2022-10-23T04:20:54;97272.34;;;14.00;41.49
47082;BME280;33066;49.296;14.470;2022-10-23T04:23:20;97272.43;;;13.96;41.78
47082;BME280;33066;49.296;14.470;2022-10-23T04:25:45;97272.38;;;13.90;41.93
47082;BME280;33066;49.296;14.470;2022-10-23T04:28:11;97270.57;;;14.13;41.77
47082;BME280;33066;49.296;14.470;2022-10-23T04:30:36;97270.27;;;14.21;41.58
47082;BME280;33066;49.296;14.470;2022-10-23T04:33:02;97269.26;;;13.92;41.54
47082;BME280;33066;49.296;14.470;2022-10-23T04:35:27;97270.74;;;14.01;41.76
47082;BME280;33066;49.296;14.470;2022-10-23T04:37:52;97272.59;;;14.00;41.55
47082;BME280;33066;49.296;14.470;2022-10-23T04:40:17;97272.06;;;14.24;41.69
47082;BME280;33066;49.296;14.470;2022-10-23T04:42:42;97268.79;;;13.98;42.58
47082;BME280;33066;49.296;14.470;2022-10-23T04:45:08;97262.11;;;14.05;42.16
47082;BME280;33066;49.296;14.470;2022-10-23T04:47:33;97254.77;;;14.02;42.05
47082;BME280;33066;49.296;14.470;2022-10-23T04:49:59;97254.84;;;14.02;42.11
47082;BME280;33066;49.296;14.470;2022-10-23T04:52:24;97262.06;;;13.94;42.33
47082;BME280;33066;49.296;14.470;2022-10-23T04:54:50;97262.57;;;13.97;42.31
47082;BME280;33066;49.296;14.470;2022-10-23T04:57:15;97259.55;;;14.20;42.23
47082;BME280;33066;49.296;14.470;2022-10-23T04:59:40;97259.77;;;14.11;42.94
47082;BME280;33066;49.296;14.470;2022-10-23T05:02:06;97262.83;;;13.88;42.71
47082;BME280;33066;49.296;14.470;2022-10-23T05:04:31;97267.69;;;14.11;43.12
47082;BME280;33066;49.296;14.470;2022-10-23T05:06:56;97267.94;;;13.79;42.77
47082;BME280;33066;49.296;14.470;2022-10-23T05:09:22;97271.34;;;14.03;42.16
47082;BME280;33066;49.296;14.470;2022-10-23T05:11:48;97280.59;;;13.79;42.21
47082;BME280;33066;49.296;14.470;2022-10-23T05:14:13;97277.46;;;13.81;42.51
47082;BME280;33066;49.296;14.470;2022-10-23T05:16:41;97274.78;;;13.77;42.50
47082;BME280;33066;49.296;14.470;2022-10-23T05:19:06;97277.74;;;14.04;42.62
47082;BME280;33066;49.296;14.470;2022-10-23T05:21:30;97279.53;;;13.87;42.62
47082;BME280;33066;49.296;14.470;2022-10-23T05:23:56;97278.67;;;13.91;42.45
47082;BME280;33066;49.296;14.470;2022-10-23T05:26:21;97276.35;;;13.93;42.35
47082;BME280;33066;49.296;14.470;2022-10-23T05:28:46;97271.15;;;13.90;42.36
47082;BME280;33066;49.296;14.470;2022-10-23T05:31:12;97262.36;;;13.99;42.46
47082;BME280;33066;49.296;14.470;2022-10-23T05:33:37;97253.30;;;14.18;41.81
47082;BME280;33066;49.296;14.470;2022-10-23T05:36:03;97250.82;;;14.12;41.92
47082;BME280;33066;49.296;14.470;2022-10-23T05:38:30;97251.20;;;14.24;41.81
47082;BME280;33066;49.296;14.470;2022-10-23T05:40:54;97255.03;;;14.13;41.80
47082;BME280;33066;49.296;14.470;2022-10-23T05:43:20;97262.92;;;14.24;42.16
47082;BME280;33066;49.296;14.470;2022-10-23T05:45:45;97272.94;;;13.96;42.04
47082;BME280;33066;49.296;14.470;2022-10-23T05:48:13;97281.60;;;14.18;41.99
47082;BME280;33066;49.296;14.470;2022-10-23T05:50:36;97281.59;;;13.87;41.87
47082;BME280;33066;49.296;14.470;2022-10-23T05:53:02;97273.20;;;13.81;42.23
47082;BME280;33066;49.296;14.470;2022-10-23T05:55:27;97265.53;;;14.07;42.29
47082;BME280;33066;49.296;14.470;2022-10-23T05:57:53;97268.11;;;14.13;42.03
47082;BME280;33066;49.296;14.470;2022-10-23T06:00:18;97275.71;;;13.86;42.04
47082;BME280;33066;49.296;14.470;2022-10-23T06:02:43;97280.10;;;13.87;42.22
47082;BME280;33066;49.296;14.470;2022-10-23T06:05:09;97283.69;;;14.13;42.15
47082;BME280;33066;49.296;14.470;2022-10-23T06:07:34;97286.38;;;14.16;42.16
47082;BME280;33066;49.296;14.470;2022-10-23T06:09:59;97287.46;;;14.16;42.24
47082;BME280;33066;49.296;14.470;2022-10-23T06:12:24;97288.44;;;13.93;42.40
47082;BME280;33066;49.296;14.470;2022-10-23T06:14:50;97290.28;;;14.17;42.19
47082;BME280;33066;49.296;14.470;2022-10-23T06:17:15;97295.42;;;14.02;42.20
47082;BME280;33066;49.296;14.470;2022-10-23T06:19:43;97296.49;;;13.85;42.25
47082;BME280;33066;49.296;14.470;2022-10-23T06:22:06;97296.20;;;14.38;42.08
47082;BME280;33066;49.296;14.470;2022-10-23T06:24:32;97297.94;;;13.84;42.04
47082;BME280;33066;49.296;14.470;2022-10-23T06:26:57;97292.88;;;14.05;42.17
47082;BME280;33066;49.296;14.470;2022-10-23T06:29:22;97289.41;;;14.10;42.15
47082;BME280;33066;49.296;14.470;2022-10-23T06:31:48;97289.93;;;14.13;42.12
47082;BME280;33066;49.296;14.470;2022-10-23T06:34:13;97295.74;;;14.15;42.17
47082;BME280;33066;49.296;14.470;2022-10-23T06:36:38;97295.74;;;14.15;42.37
47082;BME280;33066;49.296;14.470;2022-10-23T06:39:04;97291.93;;;14.25;42.33
47082;BME280;33066;49.296;14.470;2022-10-23T06:41:29;97291.12;;;14.28;42.43
47082;BME280;33066;49.296;14.470;2022-10-23T06:43:55;97287.58;;;14.54;42.42
47082;BME280;33066;49.296;14.470;2022-10-23T06:46:21;97288.95;;;14.64;42.36
47082;BME280;33066;49.296;14.470;2022-10-23T06:48:47;97289.95;;;14.25;42.22
47082;BME280;33066;49.296;14.470;2022-10-23T06:51:15;97286.65;;;14.38;42.08
47082;BME280;33066;49.296;14.470;2022-10-23T06:53:38;97287.65;;;14.46;41.88
47082;BME280;33066;49.296;14.470;2022-10-23T06:56:05;97290.15;;;14.54;41.97
47082;BME280;33066;49.296;14.470;2022-10-23T06:58:28;97290.48;;;14.63;41.88
47082;BME280;33066;49.296;14.470;2022-10-23T07:00:53;97290.40;;;14.68;41.73
47082;BME280;33066;49.296;14.470;2022-10-23T07:03:18;97292.95;;;14.74;41.65
47082;BME280;33066;49.296;14.470;2022-10-23T07:05:44;97301.59;;;14.80;41.69
47082;BME280;33066;49.296;14.470;2022-10-23T07:08:10;97305.01;;;15.06;41.56
47082;BME280;33066;49.296;14.470;2022-10-23T07:10:35;97306.74;;;14.87;41.53
47082;BME280;33066;49.296;14.470;2022-10-23T07:13:00;97308.64;;;15.04;41.47
47082;BME280;33066;49.296;14.470;2022-10-23T07:15:26;97311.65;;;14.81;41.51
47082;BME280;33066;49.296;14.470;2022-10-23T07:17:51;97311.05;;;14.88;41.60
47082;BME280;33066;49.296;14.470;2022-10-23T07:20:16;97313.26;;;14.88;41.64
47082;BME280;33066;49.296;14.470;2022-10-23T07:22:41;97314.12;;;14.89;41.65
47082;BME280;33066;49.296;14.470;2022-10-23T07:25:07;97317.09;;;15.24;41.80
47082;BME280;33066;49.296;14.470;2022-10-23T07:27:35;97314.98;;;15.07;41.80
47082;BME280;33066;49.296;14.470;2022-10-23T07:29:58;97312.73;;;15.42;41.74
47082;BME280;33066;49.296;14.470;2022-10-23T07:32:24;97309.86;;;15.23;41.70
47082;BME280;33066;49.296;14.470;2022-10-23T07:34:49;97302.85;;;15.31;41.81
47082;BME280;33066;49.296;14.470;2022-10-23T07:37:15;97297.30;;;15.43;41.84
47082;BME280;33066;49.296;14.470;2022-10-23T07:39:40;97291.98;;;15.20;41.85
47082;BME280;33066;49.296;14.470;2022-10-23T07:42:07;97289.21;;;15.13;42.13
47082;BME280;33066;49.296;14.470;2022-10-23T07:44:31;97287.31;;;15.15;42.15
47082;BME280;33066;49.296;14.470;2022-10-23T07:46:57;97288.02;;;15.49;41.91
47082;BME280;33066;49.296;14.470;2022-10-23T07:49:22;97286.42;;;15.12;41.98
47082;BME280;33066;49.296;14.470;2022-10-23T07:51:47;97289.76;;;15.33;42.11
47082;BME280;33066;49.296;14.470;2022-10-23T07:54:13;97289.53;;;15.18;42.11
47082;BME280;33066;49.296;14.470;2022-10-23T07:56:39;97287.41;;;15.72;42.23
47082;BME280;33066;49.296;14.470;2022-10-23T07:59:05;97287.16;;;15.89;42.16
47082;BME280;33066;49.296;14.470;2022-10-23T08:01:32;97285.52;;;15.63;42.09
47082;BME280;33066;49.296;14.470;2022-10-23T08:03:56;97288.72;;;15.57;42.14
47082;BME280;33066;49.296;14.470;2022-10-23T08:06:21;97289.24;;;15.36;42.29
47082;BME280;33066;49.296;14.470;2022-10-23T08:08:46;97289.94;;;15.68;42.32
47082;BME280;33066;49.296;14.470;2022-10-23T08:11:14;97294.40;;;15.92;42.45
47082;BME280;33066;49.296;14.470;2022-10-23T08:13:38;97295.75;;;15.70;42.53
47082;BME280;33066;49.296;14.470;2022-10-23T08:16:03;97299.14;;;15.53;42.58
47082;BME280;33066;49.296;14.470;2022-10-23T08:18:27;97299.91;;;15.57;42.55
47082;BME280;33066;49.296;14.470;2022-10-23T08:20:52;97297.08;;;15.63;42.52
47082;BME280;33066;49.296;14.470;2022-10-23T08:23:18;97296.29;;;15.72;42.53
47082;BME280;33066;49.296;14.470;2022-10-23T08:25:43;97289.89;;;15.80;42.54
47082;BME280;33066;49.296;14.470;2022-10-23T08:28:09;97283.22;;;15.87;42.61
47082;BME280;33066;49.296;14.470;2022-10-23T08:30:35;97281.77;;;16.18;42.82
47082;BME280;33066;49.296;14.470;2022-10-23T08:33:01;97282.91;;;16.04;42.94
47082;BME280;33066;49.296;14.470;2022-10-23T08:35:24;97281.66;;;16.07;43.02
47082;BME280;33066;49.296;14.470;2022-10-23T08:37:50;97281.83;;;16.29;42.98
47082;BME280;33066;49.296;14.470;2022-10-23T08:40:16;97283.17;;;16.34;43.06
47082;BME280;33066;49.296;14.470;2022-10-23T08:42:41;97276.24;;;16.49;42.75
47082;BME280;33066;49.296;14.470;2022-10-23T08:45:10;97267.59;;;16.41;42.66
47082;BME280;33066;49.296;14.470;2022-10-23T08:47:37;97269.06;;;16.83;42.80
47082;BME280;33066;49.296;14.470;2022-10-23T08:49:59;97265.32;;;17.05;42.68
47082;BME280;33066;49.296;14.470;2022-10-23T08:52:25;97259.78;;;16.77;42.86
47082;BME280;33066;49.296;14.470;2022-10-23T08:54:55;97254.26;;;17.37;42.66
47082;BME280;33066;49.296;14.470;2022-10-23T08:57:15;97248.56;;;17.01;42.74
47082;BME280;33066;49.296;14.470;2022-10-23T08:59:44;97246.74;;;17.15;42.46
47082;BME280;33066;49.296;14.470;2022-10-23T09:02:09;97244.12;;;17.52;42.11
47082;BME280;33066;49.296;14.470;2022-10-23T09:04:30;97247.35;;;17.22;42.20
47082;BME280;33066;49.296;14.470;2022-10-23T09:07:02;97252.08;;;17.60;42.04
47082;BME280;33066;49.296;14.470;2022-10-23T09:09:31;97251.88;;;17.73;41.85
47082;BME280;33066;49.296;14.470;2022-10-23T09:11:51;97250.66;;;17.88;41.73
47082;BME280;33066;49.296;14.470;2022-10-23T09:14:25;97254.72;;;17.75;41.72
47082;BME280;33066;49.296;14.470;2022-10-23T09:16:45;97255.87;;;17.82;41.27
47082;BME280;33066;49.296;14.470;2022-10-23T09:19:09;97254.93;;;17.85;41.29
47082;BME280;33066;49.296;14.470;2022-10-23T09:21:28;97259.23;;;17.64;41.06
47082;BME280;33066;49.296;14.470;2022-10-23T09:23:53;97255.38;;;17.52;41.19
47082;BME280;33066;49.296;14.470;2022-10-23T09:26:19;97247.88;;;18.02;41.35
47082;BME280;33066;49.296;14.470;2022-10-23T09:28:46;97241.54;;;17.61;41.53
47082;BME280;33066;49.296;14.470;2022-10-23T09:31:11;97234.52;;;17.86;41.46
47082;BME280;33066;49.296;14.470;2022-10-23T09:33:35;97226.17;;;17.92;41.23
47082;BME280;33066;49.296;14.470;2022-10-23T09:36:02;97217.38;;;18.00;41.49
47082;BME280;33066;49.296;14.470;2022-10-23T09:38:29;97217.57;;;18.06;41.70
47082;BME280;33066;49.296;14.470;2022-10-23T09:40:51;97216.76;;;18.15;41.83
47082;BME280;33066;49.296;14.470;2022-10-23T09:43:18;97213.61;;;17.94;41.76
47082;BME280;33066;49.296;14.470;2022-10-23T09:45:41;97210.47;;;17.99;41.66
47082;BME280;33066;49.296;14.470;2022-10-23T09:48:11;97204.45;;;18.00;41.69
47082;BME280;33066;49.296;14.470;2022-10-23T09:50:32;97212.13;;;18.18;41.38
47082;BME280;33066;49.296;14.470;2022-10-23T09:52:57;97215.26;;;18.23;41.22
47082;BME280;33066;49.296;14.470;2022-10-23T09:55:24;97219.09;;;18.03;41.15
47082;BME280;33066;49.296;14.470;2022-10-23T09:57:49;97218.14;;;18.22;41.16
47082;BME280;33066;49.296;14.470;2022-10-23T10:00:16;97220.61;;;18.34;41.28
47082;BME280;33066;49.296;14.470;2022-10-23T10:02:41;97219.84;;;18.34;41.10
47082;BME280;33066;49.296;14.470;2022-10-23T10:07:31;97212.89;;;18.72;40.88
47082;BME280;33066;49.296;14.470;2022-10-23T10:09:56;97216.43;;;18.57;40.95
47082;BME280;33066;49.296;14.470;2022-10-23T10:12:31;97220.26;;;18.66;41.18
47082;BME280;33066;49.296;14.470;2022-10-23T10:14:57;97220.67;;;18.77;41.04
47082;BME280;33066;49.296;14.470;2022-10-23T10:17:19;97222.38;;;18.66;40.93
47082;BME280;33066;49.296;14.470;2022-10-23T10:19:50;97215.41;;;19.07;40.85
47082;BME280;33066;49.296;14.470;2022-10-23T10:22:11;97210.03;;;19.12;40.67
47082;BME280;33066;49.296;14.470;2022-10-23T10:24:33;97205.63;;;19.59;40.31
47082;BME280;33066;49.296;14.470;2022-10-23T10:27:00;97199.44;;;19.48;40.10
47082;BME280;33066;49.296;14.470;2022-10-23T10:29:23;97192.93;;;19.77;39.96
47082;BME280;33066;49.296;14.470;2022-10-23T10:31:55;97189.65;;;20.07;39.88
47082;BME280;33066;49.296;14.470;2022-10-23T10:34:15;97185.83;;;20.08;39.42
47082;BME280;33066;49.296;14.470;2022-10-23T10:36:44;97176.31;;;20.36;39.06
47082;BME280;33066;49.296;14.470;2022-10-23T10:39:03;97172.58;;;20.46;39.21
47082;BME280;33066;49.296;14.470;2022-10-23T10:41:36;97168.44;;;20.38;39.18
47082;BME280;33066;49.296;14.470;2022-10-23T10:44:02;97162.43;;;20.54;39.03
47082;BME280;33066;49.296;14.470;2022-10-23T10:46:23;97155.23;;;20.83;38.82
47082;BME280;33066;49.296;14.470;2022-10-23T10:48:47;97154.41;;;21.13;38.40
47082;BME280;33066;49.296;14.470;2022-10-23T10:51:13;97148.50;;;21.24;37.86
47082;BME280;33066;49.296;14.470;2022-10-23T10:53:41;97146.35;;;21.26;37.87
47082;BME280;33066;49.296;14.470;2022-10-23T10:56:01;97138.90;;;21.16;37.97
47082;BME280;33066;49.296;14.470;2022-10-23T10:58:30;97136.68;;;20.84;38.54
47082;BME280;33066;49.296;14.470;2022-10-23T11:00:54;97130.12;;;20.58;38.96
47082;BME280;33066;49.296;14.470;2022-10-23T11:03:26;97130.82;;;20.45;39.06
47082;BME280;33066;49.296;14.470;2022-10-23T11:05:43;97129.67;;;20.29;39.24
47082;BME280;33066;49.296;14.470;2022-10-23T11:08:11;97125.26;;;20.28;39.39
47082;BME280;33066;49.296;14.470;2022-10-23T11:10:31;97120.44;;;20.28;39.61
47082;BME280;33066;49.296;14.470;2022-10-23T11:12:56;97117.40;;;20.65;39.03
47082;BME280;33066;49.296;14.470;2022-10-23T11:15:26;97117.08;;;20.59;39.18
47082;BME280;33066;49.296;14.470;2022-10-23T11:17:50;97116.40;;;20.67;39.02
47082;BME280;33066;49.296;14.470;2022-10-23T11:20:24;97115.08;;;20.64;38.96
47082;BME280;33066;49.296;14.470;2022-10-23T11:22:44;97110.61;;;20.81;39.19
47082;BME280;33066;49.296;14.470;2022-10-23T11:27:41;97107.15;;;20.45;39.53
47082;BME280;33066;49.296;14.470;2022-10-23T11:32:36;97103.51;;;20.82;39.91
47082;BME280;33066;49.296;14.470;2022-10-23T11:34:57;97101.57;;;20.30;40.04
47082;BME280;33066;49.296;14.470;2022-10-23T11:37:15;97095.88;;;20.26;40.25
47082;BME280;33066;49.296;14.470;2022-10-23T11:39:38;97090.83;;;20.30;40.63
47082;BME280;33066;49.296;14.470;2022-10-23T11:42:12;97092.26;;;20.45;40.33
47082;BME280;33066;49.296;14.470;2022-10-23T11:44:40;97089.80;;;20.64;40.19
47082;BME280;33066;49.296;14.470;2022-10-23T11:47:00;97078.39;;;20.53;40.14
47082;BME280;33066;49.296;14.470;2022-10-23T11:49:19;97075.12;;;20.90;39.97
47082;BME280;33066;49.296;14.470;2022-10-23T11:51:43;97074.72;;;21.07;39.98
47082;BME280;33066;49.296;14.470;2022-10-23T11:54:20;97071.76;;;21.03;39.80
47082;BME280;33066;49.296;14.470;2022-10-23T11:56:33;97067.94;;;21.10;39.45
47082;BME280;33066;49.296;14.470;2022-10-23T12:01:29;97054.66;;;21.19;39.52
47082;BME280;33066;49.296;14.470;2022-10-23T12:03:52;97046.69;;;21.27;39.56
47082;BME280;33066;49.296;14.470;2022-10-23T12:06:22;97047.15;;;21.36;39.33
47082;BME280;33066;49.296;14.470;2022-10-23T12:08:48;97042.57;;;21.49;38.93
47082;BME280;33066;49.296;14.470;2022-10-23T12:13:44;97036.38;;;21.75;37.55
47082;BME280;33066;49.296;14.470;2022-10-23T12:15:56;97036.07;;;21.99;37.02
47082;BME280;33066;49.296;14.470;2022-10-23T12:18:22;97024.76;;;22.31;36.73
47082;BME280;33066;49.296;14.470;2022-10-23T12:20:51;97018.24;;;22.17;35.76
47082;BME280;33066;49.296;14.470;2022-10-23T12:25:43;97012.63;;;22.91;35.30
47082;BME280;33066;49.296;14.470;2022-10-23T12:28:07;97015.22;;;23.46;34.24
47082;BME280;33066;49.296;14.470;2022-10-23T12:30:33;97010.50;;;24.08;33.20
47082;BME280;33066;49.296;14.470;2022-10-23T12:33:06;97004.46;;;25.11;31.27
47082;BME280;33066;49.296;14.470;2022-10-23T12:35:26;97000.35;;;26.23;30.06
47082;BME280;33066;49.296;14.470;2022-10-23T12:37:55;96996.21;;;26.63;28.96
47082;BME280;33066;49.296;14.470;2022-10-23T12:40:11;97001.52;;;27.58;27.39
47082;BME280;33066;49.296;14.470;2022-10-23T12:42:37;97000.46;;;27.79;27.04
47082;BME280;33066;49.296;14.470;2022-10-23T12:45:12;97000.15;;;28.30;25.80
47082;BME280;33066;49.296;14.470;2022-10-23T12:47:29;96995.16;;;28.87;25.72
47082;BME280;33066;49.296;14.470;2022-10-23T12:49:53;96994.25;;;29.33;25.08
47082;BME280;33066;49.296;14.470;2022-10-23T12:52:20;96983.98;;;30.41;24.08
47082;BME280;33066;49.296;14.470;2022-10-23T12:54:45;96979.85;;;30.67;22.94
47082;BME280;33066;49.296;14.470;2022-10-23T12:57:19;96976.63;;;30.55;23.03